createdAt,value
2023-11-25T00:00:41.577Z,0.95
2023-11-25T00:01:43.198Z,0.94
2023-11-25T00:02:44.894Z,0.95
2023-11-25T00:03:46.609Z,0.93
2023-11-25T00:04:48.334Z,0.93
2023-11-25T00:05:50.088Z,0.92
2023-11-25T00:06:51.817Z,0.91
2023-11-25T00:07:53.537Z,0.91
2023-11-25T00:08:55.313Z,0.91
2023-11-25T00:09:57.025Z,0.92
2023-11-25T00:10:58.762Z,0.92
2023-11-25T00:12:00.480Z,0.92
2023-11-25T00:13:02.526Z,0.92
2023-11-25T00:14:03.977Z,0.92
2023-11-25T00:15:05.698Z,0.91
2023-11-25T00:16:07.452Z,0.91
2023-11-25T00:17:09.205Z,0.91
2023-11-25T00:18:10.919Z,0.92
2023-11-25T00:19:12.641Z,0.92
2023-11-25T00:20:14.337Z,0.92
2023-11-25T00:21:16.079Z,0.92
2023-11-25T00:22:17.823Z,0.92
2023-11-25T00:23:19.561Z,0.92
2023-11-25T00:24:21.289Z,0.93
2023-11-25T00:25:23.026Z,0.93
2023-11-25T00:26:24.721Z,0.93
2023-11-25T00:27:26.453Z,0.94
2023-11-25T00:28:28.209Z,0.93
2023-11-25T00:29:29.972Z,0.92
2023-11-25T00:30:31.660Z,0.92
2023-11-25T00:31:33.590Z,0.91
2023-11-25T00:32:35.163Z,0.9
2023-11-25T00:33:36.899Z,0.89
2023-11-25T00:34:38.664Z,0.9
2023-11-25T00:35:40.338Z,0.9
2023-11-25T00:36:42.076Z,0.9
2023-11-25T00:37:44.043Z,0.89
2023-11-25T00:38:47.935Z,0.9
2023-11-25T00:39:48.506Z,0.9
2023-11-25T00:40:50.271Z,0.88
2023-11-25T00:41:51.780Z,0.88
2023-11-25T00:42:52.450Z,0.87
2023-11-25T00:44:43.748Z,0.88
2023-11-25T00:46:09.374Z,0.88
2023-11-25T00:47:29.890Z,0.87
2023-11-25T00:48:42.110Z,0.88
2023-11-25T00:49:44.153Z,0.87
2023-11-25T00:50:45.840Z,0.87
2023-11-25T00:51:47.554Z,0.87
2023-11-25T00:52:49.310Z,0.85
2023-11-25T00:53:51.015Z,0.85
2023-11-25T00:54:52.775Z,0.84
2023-11-25T00:55:54.509Z,0.84
2023-11-25T00:56:56.261Z,0.83
2023-11-25T00:57:57.955Z,0.82
2023-11-25T00:58:59.699Z,0.82
2023-11-25T01:00:01.463Z,0.8
2023-11-25T01:01:03.215Z,0.8
2023-11-25T01:02:04.969Z,0.8
2023-11-25T01:03:06.700Z,0.78
2023-11-25T01:04:08.425Z,0.78
2023-11-25T01:05:10.115Z,0.77
2023-11-25T01:06:11.815Z,0.77
2023-11-25T01:07:13.575Z,0.77
2023-11-25T01:08:15.293Z,0.76
2023-11-25T01:09:17.045Z,0.76
2023-11-25T01:10:18.816Z,0.75
2023-11-25T01:11:20.491Z,0.75
2023-11-25T01:12:22.225Z,0.73
2023-11-25T01:13:24.004Z,0.73
2023-11-25T01:14:25.687Z,0.72
2023-11-25T01:15:27.428Z,0.71
2023-11-25T01:16:29.224Z,0.71
2023-11-25T01:17:30.951Z,0.72
2023-11-25T01:18:32.627Z,0.73
2023-11-25T01:19:34.384Z,0.74
2023-11-25T01:20:36.156Z,0.74
2023-11-25T01:21:37.821Z,0.75
2023-11-25T01:22:39.632Z,0.75
2023-11-25T01:23:41.292Z,0.76
2023-11-25T01:24:43.019Z,0.76
2023-11-25T01:25:44.801Z,0.75
2023-11-25T01:26:46.504Z,0.76
2023-11-25T01:27:48.343Z,0.76
2023-11-25T01:28:49.977Z,0.75
2023-11-25T01:29:51.726Z,0.75
2023-11-25T01:30:53.462Z,0.75
2023-11-25T01:31:55.252Z,0.75
2023-11-25T01:32:56.984Z,0.75
2023-11-25T01:33:58.685Z,0.76
2023-11-25T01:35:00.402Z,0.75
2023-11-25T01:36:02.157Z,0.75
2023-11-25T01:37:03.894Z,0.75
2023-11-25T01:38:05.552Z,0.76
2023-11-25T01:39:07.293Z,0.76
2023-11-25T01:40:09.071Z,0.76
2023-11-25T01:41:10.788Z,0.78
2023-11-25T01:42:12.470Z,0.78
2023-11-25T01:43:14.262Z,0.77
2023-11-25T01:44:15.947Z,0.78
2023-11-25T01:45:17.713Z,0.78
2023-11-25T01:46:19.524Z,0.77
2023-11-25T01:47:21.153Z,0.77
2023-11-25T01:48:22.883Z,0.76
2023-11-25T01:49:24.642Z,0.75
2023-11-25T01:50:26.352Z,0.76
2023-11-25T01:51:28.109Z,0.73
2023-11-25T01:52:29.861Z,0.71
2023-11-25T01:53:31.533Z,0.7
2023-11-25T01:54:33.288Z,0.69
2023-11-25T01:55:35.073Z,0.67
2023-11-25T01:56:36.749Z,0.66
2023-11-25T01:57:38.535Z,0.65
2023-11-25T01:58:40.283Z,0.63
2023-11-25T01:59:41.930Z,0.62
2023-11-25T02:00:43.663Z,0.6
2023-11-25T02:01:45.608Z,0.58
2023-11-25T02:02:47.347Z,0.56
2023-11-25T02:03:48.936Z,0.54
2023-11-25T02:04:50.679Z,0.53
2023-11-25T02:05:52.336Z,0.53
2023-11-25T02:06:54.112Z,0.52
2023-11-25T02:07:55.803Z,0.52
2023-11-25T02:08:57.540Z,0.5
2023-11-25T02:09:59.269Z,0.5
2023-11-25T02:11:00.996Z,0.5
2023-11-25T02:12:02.820Z,0.49
2023-11-25T02:13:04.493Z,0.49
2023-11-25T02:14:09.246Z,0.48
2023-11-25T02:15:14.295Z,0.48
2023-11-25T02:16:17.784Z,0.46
2023-11-25T02:17:32.263Z,0.47
2023-11-25T02:18:40.516Z,0.46
2023-11-25T02:19:54.018Z,0.46
2023-11-25T02:21:01.913Z,0.47
2023-11-25T02:22:36.829Z,0.48
2023-11-25T02:23:39.572Z,0.48
2023-11-25T02:24:40.566Z,0.48
2023-11-25T02:25:43.305Z,0.49
2023-11-25T02:26:48.487Z,0.49
2023-11-25T02:27:55.449Z,0.5
2023-11-25T02:29:08.890Z,0.52
2023-11-25T02:30:10.213Z,0.53
2023-11-25T02:31:12.064Z,0.53
2023-11-25T02:32:13.738Z,0.54
2023-11-25T02:33:15.454Z,0.55
2023-11-25T02:34:17.173Z,0.57
2023-11-25T02:35:18.876Z,0.58
2023-11-25T02:36:20.599Z,0.6
2023-11-25T02:37:22.345Z,0.63
2023-11-25T02:38:24.067Z,0.64
2023-11-25T02:39:25.775Z,0.66
2023-11-25T02:40:27.561Z,0.68
2023-11-25T02:41:29.266Z,0.71
2023-11-25T02:42:30.981Z,0.72
2023-11-25T02:43:32.795Z,0.75
2023-11-25T02:44:34.727Z,0.77
2023-11-25T02:45:36.187Z,0.78
2023-11-25T02:46:37.963Z,0.81
2023-11-25T02:47:39.706Z,0.81
2023-11-25T02:48:41.383Z,0.84
2023-11-25T02:49:43.222Z,0.85
2023-11-25T02:50:44.847Z,0.87
2023-11-25T02:51:46.587Z,0.87
2023-11-25T02:52:48.344Z,0.89
2023-11-25T02:53:50.061Z,0.9
2023-11-25T02:54:51.766Z,0.92
2023-11-25T02:55:53.565Z,0.92
2023-11-25T02:56:55.234Z,0.93
2023-11-25T02:57:56.982Z,0.94
2023-11-25T02:58:58.740Z,0.95
2023-11-25T03:00:00.479Z,0.95
2023-11-25T03:01:02.176Z,0.96
2023-11-25T03:02:04.072Z,0.97
2023-11-25T03:03:05.680Z,0.97
2023-11-25T03:04:07.570Z,0.97
2023-11-25T03:05:09.116Z,0.99
2023-11-25T03:06:11.033Z,1
2023-11-25T03:07:12.584Z,1.01
2023-11-25T03:08:14.346Z,1.02
2023-11-25T03:09:16.036Z,1.02
2023-11-25T03:10:17.826Z,1.02
2023-11-25T03:11:19.493Z,1.02
2023-11-25T03:12:21.256Z,1.03
2023-11-25T03:13:22.972Z,1.01
2023-11-25T03:14:24.730Z,1.03
2023-11-25T03:15:26.462Z,1.02
2023-11-25T03:16:28.201Z,1.03
2023-11-25T03:17:29.928Z,1.03
2023-11-25T03:18:31.650Z,1.01
2023-11-25T03:19:33.441Z,1.01
2023-11-25T03:20:35.119Z,1
2023-11-25T03:21:36.847Z,0.99
2023-11-25T03:22:38.630Z,0.99
2023-11-25T03:23:40.315Z,0.98
2023-11-25T03:24:42.056Z,0.99
2023-11-25T03:25:43.805Z,1.01
2023-11-25T03:26:45.498Z,1.02
2023-11-25T03:27:47.240Z,1.02
2023-11-25T03:28:49.045Z,1.02
2023-11-25T03:29:50.846Z,1.03
2023-11-25T03:30:52.445Z,1.02
2023-11-25T03:31:54.222Z,1.03
2023-11-25T03:32:55.980Z,1.03
2023-11-25T03:33:57.673Z,1.06
2023-11-25T03:35:01.746Z,1.08
2023-11-25T03:36:01.089Z,1.09
2023-11-25T03:37:02.823Z,1.1
2023-11-25T03:38:04.576Z,1.11
2023-11-25T03:39:06.290Z,1.11
2023-11-25T03:40:08.109Z,1.13
2023-11-25T03:41:09.765Z,1.15
2023-11-25T03:42:11.489Z,1.15
2023-11-25T03:43:13.447Z,1.16
2023-11-25T03:44:14.959Z,1.17
2023-11-25T03:45:16.844Z,1.18
2023-11-25T03:46:18.473Z,1.18
2023-11-25T03:47:20.224Z,1.19
2023-11-25T03:48:21.906Z,1.21
2023-11-25T03:49:23.674Z,1.22
2023-11-25T03:50:25.377Z,1.23
2023-11-25T03:51:27.117Z,1.24
2023-11-25T03:52:28.837Z,1.24
2023-11-25T03:53:30.567Z,1.25
2023-11-25T03:54:32.298Z,1.24
2023-11-25T03:55:34.098Z,1.25
2023-11-25T03:56:35.769Z,1.25
2023-11-25T03:57:37.491Z,1.25
2023-11-25T03:58:39.262Z,1.26
2023-11-25T03:59:40.950Z,1.27
2023-11-25T04:00:42.738Z,1.26
2023-11-25T04:01:44.569Z,1.27
2023-11-25T04:02:46.285Z,1.26
2023-11-25T04:03:47.925Z,1.26
2023-11-25T04:04:49.785Z,1.27
2023-11-25T04:05:51.370Z,1.26
2023-11-25T04:06:53.129Z,1.26
2023-11-25T04:07:54.825Z,1.27
2023-11-25T04:08:56.571Z,1.26
2023-11-25T04:09:58.400Z,1.25
2023-11-25T04:11:00.028Z,1.26
2023-11-25T04:12:01.760Z,1.26
2023-11-25T04:13:03.491Z,1.26
2023-11-25T04:14:05.236Z,1.27
2023-11-25T04:15:07.145Z,1.26
2023-11-25T04:16:08.705Z,1.26
2023-11-25T04:17:12.933Z,1.27
2023-11-25T04:18:12.292Z,1.28
2023-11-25T04:19:13.933Z,1.28
2023-11-25T04:20:15.877Z,1.29
2023-11-25T04:21:17.572Z,1.29
2023-11-25T04:22:19.143Z,1.3
2023-11-25T04:23:20.827Z,1.3
2023-11-25T04:24:22.863Z,1.31
2023-11-25T04:25:24.409Z,1.31
2023-11-25T04:26:26.142Z,1.31
2023-11-25T04:27:27.774Z,1.32
2023-11-25T04:28:29.530Z,1.32
2023-11-25T04:29:31.375Z,1.34
2023-11-25T04:30:32.987Z,1.34
2023-11-25T04:31:34.770Z,1.36
2023-11-25T04:32:36.504Z,1.36
2023-11-25T04:33:38.241Z,1.37
2023-11-25T04:34:39.929Z,1.39
2023-11-25T04:35:41.621Z,1.4
2023-11-25T04:36:43.517Z,1.41
2023-11-25T04:37:45.148Z,1.41
2023-11-25T04:38:46.815Z,1.43
2023-11-25T04:39:48.541Z,1.43
2023-11-25T04:40:50.387Z,1.44
2023-11-25T04:41:52.017Z,1.44
2023-11-25T04:42:53.758Z,1.45
2023-11-25T04:43:55.546Z,1.46
2023-11-25T04:44:57.364Z,1.46
2023-11-25T04:45:58.944Z,1.46
2023-11-25T04:47:00.784Z,1.47
2023-11-25T04:48:02.464Z,1.48
2023-11-25T04:49:04.145Z,1.48
2023-11-25T04:50:05.894Z,1.48
2023-11-25T04:51:07.594Z,1.48
2023-11-25T04:52:09.459Z,1.49
2023-11-25T04:53:11.068Z,1.49
2023-11-25T04:54:12.829Z,1.49
2023-11-25T04:55:14.570Z,1.49
2023-11-25T04:56:17.281Z,1.49
2023-11-25T04:57:18.195Z,1.49
2023-11-25T04:58:19.784Z,1.49
2023-11-25T04:59:21.474Z,1.49
2023-11-25T05:00:23.190Z,1.49
2023-11-25T05:01:25.092Z,1.49
2023-11-25T05:02:26.803Z,1.49
2023-11-25T05:03:28.450Z,1.49
2023-11-25T05:04:30.143Z,1.5
2023-11-25T05:05:31.872Z,1.5
2023-11-25T05:06:33.612Z,1.49
2023-11-25T05:07:35.471Z,1.5
2023-11-25T05:08:37.079Z,1.5
2023-11-25T05:09:39.042Z,1.51
2023-11-25T05:10:40.601Z,1.5
2023-11-25T05:11:42.265Z,1.51
2023-11-25T05:12:44.162Z,1.5
2023-11-25T05:13:45.780Z,1.51
2023-11-25T05:14:47.509Z,1.51
2023-11-25T05:15:49.201Z,1.51
2023-11-25T05:16:50.989Z,1.51
2023-11-25T05:17:52.732Z,1.51
2023-11-25T05:18:54.447Z,1.51
2023-11-25T05:19:56.139Z,1.51
2023-11-25T05:20:57.872Z,1.51
2023-11-25T05:21:59.622Z,1.51
2023-11-25T05:23:01.921Z,1.51
2023-11-25T05:24:03.067Z,1.52
2023-11-25T05:25:04.801Z,1.52
2023-11-25T05:26:06.529Z,1.52
2023-11-25T05:27:08.285Z,1.52
2023-11-25T05:28:10.012Z,1.52
2023-11-25T05:29:11.757Z,1.5
2023-11-25T05:30:13.472Z,1.5
2023-11-25T05:31:15.383Z,1.5
2023-11-25T05:32:16.997Z,1.5
2023-11-25T05:33:18.777Z,1.49
2023-11-25T05:34:20.412Z,1.48
2023-11-25T05:35:22.150Z,1.48
2023-11-25T05:36:23.851Z,1.48
2023-11-25T05:37:25.629Z,1.47
2023-11-25T05:38:27.344Z,1.48
2023-11-25T05:39:29.086Z,1.47
2023-11-25T05:40:31.087Z,1.47
2023-11-25T05:41:32.523Z,1.45
2023-11-25T05:42:34.296Z,1.45
2023-11-25T05:43:36.036Z,1.45
2023-11-25T05:44:37.744Z,1.44
2023-11-25T05:45:39.498Z,1.45
2023-11-25T05:46:41.270Z,1.44
2023-11-25T05:47:42.954Z,1.43
2023-11-25T05:48:44.651Z,1.43
2023-11-25T05:49:46.433Z,1.42
2023-11-25T05:50:48.132Z,1.4
2023-11-25T05:51:49.865Z,1.39
2023-11-25T05:52:52.149Z,1.39
2023-11-25T05:53:53.338Z,1.37
2023-11-25T05:54:55.051Z,1.37
2023-11-25T05:55:56.823Z,1.35
2023-11-25T05:56:58.521Z,1.33
2023-11-25T05:58:00.733Z,1.33
2023-11-25T05:59:02.022Z,1.32
2023-11-25T06:00:03.712Z,1.31
2023-11-25T06:01:05.534Z,1.31
2023-11-25T06:02:07.191Z,1.3
2023-11-25T06:03:08.947Z,1.31
2023-11-25T06:04:10.697Z,1.3
2023-11-25T06:05:12.473Z,1.3
2023-11-25T06:06:14.163Z,1.29
2023-11-25T06:07:15.870Z,1.29
2023-11-25T06:08:17.689Z,1.28
2023-11-25T06:09:19.328Z,1.29
2023-11-25T06:10:21.180Z,1.29
2023-11-25T06:11:22.787Z,1.28
2023-11-25T06:12:24.533Z,1.27
2023-11-25T06:13:26.298Z,1.27
2023-11-25T06:14:28.006Z,1.28
2023-11-25T06:15:29.731Z,1.26
2023-11-25T06:16:32.407Z,1.27
2023-11-25T06:17:33.251Z,1.25
2023-11-25T06:18:35.033Z,1.25
2023-11-25T06:19:36.680Z,1.24
2023-11-25T06:20:38.401Z,1.24
2023-11-25T06:21:41.647Z,1.22
2023-11-25T06:22:41.871Z,1.21
2023-11-25T06:23:43.593Z,1.2
2023-11-25T06:24:45.334Z,1.18
2023-11-25T06:25:47.086Z,1.18
2023-11-25T06:26:48.814Z,1.17
2023-11-25T06:27:50.525Z,1.15
2023-11-25T06:28:52.285Z,1.14
2023-11-25T06:29:53.991Z,1.12
2023-11-25T06:30:55.743Z,1.11
2023-11-25T06:31:57.479Z,1.09
2023-11-25T06:32:59.229Z,1.07
2023-11-25T06:34:00.993Z,1.05
2023-11-25T06:35:02.820Z,1.03
2023-11-25T06:36:04.413Z,1.01
2023-11-25T06:37:06.264Z,1
2023-11-25T06:38:07.974Z,0.98
2023-11-25T06:39:09.642Z,0.97
2023-11-25T06:40:11.321Z,0.96
2023-11-25T06:41:13.221Z,0.94
2023-11-25T06:42:14.788Z,0.93
2023-11-25T06:43:16.688Z,0.92
2023-11-25T06:44:18.444Z,0.91
2023-11-25T06:45:19.990Z,0.9
2023-11-25T06:46:21.823Z,0.9
2023-11-25T06:47:23.575Z,0.9
2023-11-25T06:48:25.232Z,0.89
2023-11-25T06:49:26.978Z,0.89
2023-11-25T06:50:28.652Z,0.9
2023-11-25T06:51:30.409Z,0.91
2023-11-25T06:52:32.138Z,0.9
2023-11-25T06:53:33.872Z,0.9
2023-11-25T06:54:35.610Z,0.9
2023-11-25T06:55:37.342Z,0.9
2023-11-25T06:56:39.143Z,0.91
2023-11-25T06:57:40.802Z,0.9
2023-11-25T06:58:42.552Z,0.91
2023-11-25T06:59:44.259Z,0.9
2023-11-25T07:00:45.994Z,0.9
2023-11-25T07:01:47.798Z,0.9
2023-11-25T07:02:49.617Z,0.9
2023-11-25T07:03:51.182Z,0.9
2023-11-25T07:04:53.001Z,0.89
2023-11-25T07:05:54.673Z,0.89
2023-11-25T07:06:56.406Z,0.86
2023-11-25T07:07:58.104Z,0.86
2023-11-25T07:08:59.853Z,0.84
2023-11-25T07:10:01.611Z,0.83
2023-11-25T07:11:03.313Z,0.81
2023-11-25T07:12:05.048Z,0.8
2023-11-25T07:13:06.809Z,0.79
2023-11-25T07:14:08.509Z,0.79
2023-11-25T07:15:10.308Z,0.79
2023-11-25T07:16:11.998Z,0.79
2023-11-25T07:17:14.224Z,0.79
2023-11-25T07:18:15.635Z,0.8
2023-11-25T07:19:17.217Z,0.8
2023-11-25T07:20:18.931Z,0.81
2023-11-25T07:21:20.638Z,0.81
2023-11-25T07:22:22.445Z,0.83
2023-11-25T07:23:24.110Z,0.83
2023-11-25T07:24:25.850Z,0.85
2023-11-25T07:25:27.624Z,0.86
2023-11-25T07:26:29.327Z,0.87
2023-11-25T07:27:31.047Z,0.88
2023-11-25T07:28:32.882Z,0.89
2023-11-25T07:29:34.684Z,0.91
2023-11-25T07:30:36.279Z,0.92
2023-11-25T07:31:38.062Z,0.93
2023-11-25T07:32:39.763Z,0.94
2023-11-25T07:33:41.445Z,0.97
2023-11-25T07:34:43.249Z,0.98
2023-11-25T07:35:44.918Z,0.99
2023-11-25T07:36:46.726Z,1.01
2023-11-25T07:37:48.424Z,1.02
2023-11-25T07:38:50.108Z,1.03
2023-11-25T07:39:51.848Z,1.02
2023-11-25T07:40:53.624Z,1.04
2023-11-25T07:41:55.306Z,1.04
2023-11-25T07:42:57.020Z,1.03
2023-11-25T07:43:58.824Z,1.05
2023-11-25T07:45:00.545Z,1.05
2023-11-25T07:46:02.251Z,1.06
2023-11-25T07:47:04.100Z,1.07
2023-11-25T07:48:05.742Z,1.07
2023-11-25T07:49:07.429Z,1.09
2023-11-25T07:50:09.163Z,1.09
2023-11-25T07:51:10.963Z,1.11
2023-11-25T07:52:12.637Z,1.12
2023-11-25T07:53:14.407Z,1.15
2023-11-25T07:54:16.144Z,1.16
2023-11-25T07:55:19.383Z,1.17
2023-11-25T07:56:19.588Z,1.2
2023-11-25T07:57:21.289Z,1.21
2023-11-25T07:58:23.076Z,1.22
2023-11-25T07:59:24.794Z,1.24
2023-11-25T08:00:26.492Z,1.26
2023-11-25T08:01:28.292Z,1.26
2023-11-25T08:02:30.128Z,1.28
2023-11-25T08:03:31.836Z,1.29
2023-11-25T08:04:33.440Z,1.3
2023-11-25T08:05:35.182Z,1.31
2023-11-25T08:06:36.905Z,1.32
2023-11-25T08:07:38.658Z,1.33
2023-11-25T08:08:40.358Z,1.33
2023-11-25T08:09:42.102Z,1.34
2023-11-25T08:10:45.039Z,1.35
2023-11-25T08:11:45.571Z,1.36
2023-11-25T08:12:47.287Z,1.37
2023-11-25T08:13:49.035Z,1.37
2023-11-25T08:14:50.780Z,1.38
2023-11-25T08:15:52.521Z,1.38
2023-11-25T08:16:54.290Z,1.39
2023-11-25T08:17:55.994Z,1.4
2023-11-25T08:18:57.696Z,1.4
2023-11-25T08:19:59.467Z,1.41
2023-11-25T08:21:01.202Z,1.41
2023-11-25T08:22:02.897Z,1.41
2023-11-25T08:23:04.623Z,1.42
2023-11-25T08:24:06.360Z,1.41
2023-11-25T08:25:08.089Z,1.42
2023-11-25T08:26:09.834Z,1.42
2023-11-25T08:27:11.574Z,1.41
2023-11-25T08:28:13.282Z,1.42
2023-11-25T08:29:15.032Z,1.43
2023-11-25T08:30:16.771Z,1.42
2023-11-25T08:31:18.664Z,1.42
2023-11-25T08:32:20.329Z,1.42
2023-11-25T08:33:21.969Z,1.42
2023-11-25T08:34:23.730Z,1.42
2023-11-25T08:35:25.405Z,1.43
2023-11-25T08:36:27.133Z,1.44
2023-11-25T08:37:29.003Z,1.44
2023-11-25T08:38:30.640Z,1.46
2023-11-25T08:39:32.347Z,1.48
2023-11-25T08:40:34.106Z,1.5
2023-11-25T08:41:35.809Z,1.51
2023-11-25T08:42:37.572Z,1.53
2023-11-25T08:43:39.322Z,1.55
2023-11-25T08:44:41.118Z,1.56
2023-11-25T08:45:42.759Z,1.58
2023-11-25T08:46:44.675Z,1.6
2023-11-25T08:47:46.234Z,1.62
2023-11-25T08:49:03.367Z,1.64
2023-11-25T08:50:05.097Z,1.66
2023-11-25T08:51:34.870Z,1.69
2023-11-25T08:52:34.862Z,1.7
2023-11-25T08:53:36.560Z,1.72
2023-11-25T08:54:38.498Z,1.73
2023-11-25T08:55:40.112Z,1.74
2023-11-25T08:56:41.962Z,1.74
2023-11-25T08:57:43.466Z,1.75
2023-11-25T08:58:45.224Z,1.76
2023-11-25T09:05:28.562Z,1.8
2023-11-25T09:06:30.241Z,1.81
2023-11-25T09:07:33.569Z,1.83
2023-11-25T09:13:02.288Z,1.88
2023-11-25T09:14:04.018Z,1.89
2023-11-25T09:15:05.760Z,1.89
2023-11-25T09:16:07.448Z,1.91
2023-11-25T09:17:09.163Z,1.91
2023-11-25T09:18:10.998Z,1.92
2023-11-25T09:19:12.593Z,1.93
2023-11-25T09:20:14.353Z,1.94
2023-11-25T09:21:16.071Z,1.95
2023-11-25T09:22:17.810Z,1.96
2023-11-25T09:23:19.523Z,1.99
2023-11-25T09:24:21.310Z,2.01
2023-11-25T09:25:23.061Z,2.03
2023-11-25T09:26:24.896Z,2.06
2023-11-25T09:27:26.847Z,2.07
2023-11-25T09:28:30.184Z,2.09
2023-11-25T09:29:29.842Z,2.11
2023-11-25T09:30:31.592Z,2.13
2023-11-25T09:31:33.485Z,2.15
2023-11-25T09:32:35.111Z,2.16
2023-11-25T09:33:36.794Z,2.18
2023-11-25T09:34:38.609Z,2.2
2023-11-25T09:35:40.243Z,2.21
2023-11-25T09:36:41.941Z,2.23
2023-11-25T09:37:43.701Z,2.25
2023-11-25T09:38:45.393Z,2.27
2023-11-25T09:39:47.118Z,2.3
2023-11-25T09:40:49.006Z,2.34
2023-11-25T09:41:50.554Z,2.37
2023-11-25T09:42:52.305Z,2.39
2023-11-25T09:43:54.041Z,2.43
2023-11-25T09:44:55.731Z,2.44
2023-11-25T09:45:57.471Z,2.46
2023-11-25T09:46:59.398Z,2.48
2023-11-25T09:48:01.189Z,2.51
2023-11-25T09:49:02.705Z,2.53
2023-11-25T09:50:04.547Z,2.54
2023-11-25T09:51:06.079Z,2.55
2023-11-25T09:52:07.803Z,2.56
2023-11-25T09:53:09.545Z,2.57
2023-11-25T09:54:11.326Z,2.59
2023-11-25T09:55:13.127Z,2.61
2023-11-25T09:56:14.723Z,2.63
2023-11-25T09:57:16.444Z,2.66
2023-11-25T09:58:18.163Z,2.7
2023-11-25T09:59:20.113Z,2.72
2023-11-25T10:00:21.603Z,2.74
2023-11-25T10:01:23.402Z,2.77
2023-11-25T10:02:25.245Z,2.79
2023-11-25T10:03:26.887Z,2.8
2023-11-25T10:04:28.539Z,2.81
2023-11-25T10:05:31.948Z,2.83
2023-11-25T10:06:31.997Z,2.84
2023-11-25T10:07:33.815Z,2.86
2023-11-25T10:08:35.422Z,2.87
2023-11-25T10:09:37.340Z,2.88
2023-11-25T10:10:39.023Z,2.9
2023-11-25T10:11:40.597Z,2.91
2023-11-25T10:12:42.331Z,2.93
2023-11-25T10:13:44.178Z,2.95
2023-11-25T10:14:45.770Z,2.96
2023-11-25T10:15:47.661Z,2.99
2023-11-25T10:16:49.243Z,3.01
2023-11-25T10:17:51.022Z,3.03
2023-11-25T10:18:52.661Z,3.05
2023-11-25T10:19:54.430Z,3.07
2023-11-25T10:20:56.109Z,3.08
2023-11-25T10:21:57.865Z,3.09
2023-11-25T10:22:59.675Z,3.1
2023-11-25T10:24:01.287Z,3.1
2023-11-25T10:25:03.034Z,3.1
2023-11-25T10:26:04.946Z,3.09
2023-11-25T10:27:06.491Z,3.08
2023-11-25T10:28:08.178Z,3.08
2023-11-25T10:29:09.991Z,3.09
2023-11-25T10:30:11.672Z,3.08
2023-11-25T10:31:13.388Z,3.09
2023-11-25T10:32:15.085Z,3.1
2023-11-25T10:33:16.824Z,3.11
2023-11-25T10:34:18.549Z,3.15
2023-11-25T10:35:20.305Z,3.17
2023-11-25T10:36:22.012Z,3.17
2023-11-25T10:37:23.739Z,3.2
2023-11-25T10:38:25.457Z,3.22
2023-11-25T10:39:27.176Z,3.24
2023-11-25T10:40:29.038Z,3.26
2023-11-25T10:41:30.804Z,3.29
2023-11-25T10:42:32.604Z,3.31
2023-11-25T10:43:34.277Z,3.33
2023-11-25T10:44:35.861Z,3.35
2023-11-25T10:45:37.581Z,3.36
2023-11-25T10:46:39.526Z,3.36
2023-11-25T10:47:41.088Z,3.36
2023-11-25T10:48:42.706Z,3.36
2023-11-25T10:49:44.630Z,3.35
2023-11-25T10:50:46.160Z,3.35
2023-11-25T10:51:47.878Z,3.34
2023-11-25T10:52:49.631Z,3.35
2023-11-25T10:53:51.336Z,3.34
2023-11-25T10:54:53.061Z,3.35
2023-11-25T10:55:54.822Z,3.35
2023-11-25T10:56:56.530Z,3.35
2023-11-25T10:57:58.234Z,3.36
2023-11-25T10:58:59.986Z,3.37
2023-11-25T11:00:01.679Z,3.38
2023-11-25T11:01:03.533Z,3.4
2023-11-25T11:02:05.516Z,3.43
2023-11-25T11:03:07.252Z,3.45
2023-11-25T11:04:08.565Z,3.48
2023-11-25T11:05:10.323Z,3.49
2023-11-25T11:06:12.061Z,3.52
2023-11-25T11:07:13.778Z,3.56
2023-11-25T11:08:15.533Z,3.58
2023-11-25T11:09:17.205Z,3.61
2023-11-25T11:10:19.109Z,3.62
2023-11-25T11:11:20.689Z,3.65
2023-11-25T11:12:22.367Z,3.67
2023-11-25T11:13:24.320Z,3.7
2023-11-25T11:14:25.853Z,3.72
2023-11-25T11:15:27.545Z,3.75
2023-11-25T11:16:29.325Z,3.79
2023-11-25T11:17:31.043Z,3.82
2023-11-25T11:18:32.872Z,3.86
2023-11-25T11:19:34.549Z,3.89
2023-11-25T11:20:36.293Z,3.93
2023-11-25T11:21:37.910Z,3.95
2023-11-25T11:22:39.748Z,3.99
2023-11-25T11:23:41.363Z,4
2023-11-25T11:24:43.084Z,4.04
2023-11-25T11:25:44.861Z,4.06
2023-11-25T11:26:46.553Z,4.09
2023-11-25T11:27:48.281Z,4.14
2023-11-25T11:28:50.131Z,4.17
2023-11-25T11:29:51.706Z,4.19
2023-11-25T11:30:53.439Z,4.19
2023-11-25T11:31:55.249Z,4.19
2023-11-25T11:32:56.921Z,4.21
2023-11-25T11:33:58.621Z,4.22
2023-11-25T11:35:00.377Z,4.23
2023-11-25T11:36:02.040Z,4.25
2023-11-25T11:37:03.822Z,4.27
2023-11-25T11:38:05.522Z,4.29
2023-11-25T11:39:07.254Z,4.3
2023-11-25T11:40:08.964Z,4.31
2023-11-25T11:41:10.714Z,4.31
2023-11-25T11:42:12.446Z,4.31
2023-11-25T11:43:14.150Z,4.33
2023-11-25T11:44:15.923Z,4.34
2023-11-25T11:45:17.603Z,4.36
2023-11-25T11:46:19.370Z,4.37
2023-11-25T11:47:21.084Z,4.37
2023-11-25T11:48:22.998Z,4.4
2023-11-25T11:49:24.505Z,4.4
2023-11-25T11:50:26.234Z,4.4
2023-11-25T11:51:27.945Z,4.4
2023-11-25T11:52:29.703Z,4.41
2023-11-25T11:53:31.464Z,4.4
2023-11-25T11:54:33.126Z,4.4
2023-11-25T11:55:34.880Z,4.4
2023-11-25T11:56:36.550Z,4.4
2023-11-25T11:57:38.591Z,4.4
2023-11-25T11:58:40.028Z,4.39
2023-11-25T11:59:41.987Z,4.38
2023-11-25T12:00:43.578Z,4.37
2023-11-25T12:01:45.254Z,4.36
2023-11-25T12:02:47.026Z,4.35
2023-11-25T12:03:48.721Z,4.34
2023-11-25T12:04:50.522Z,4.33
2023-11-25T12:05:52.212Z,4.32
2023-11-25T12:06:54.010Z,4.3
2023-11-25T12:07:55.572Z,4.29
2023-11-25T12:08:57.287Z,4.28
2023-11-25T12:09:59.012Z,4.27
2023-11-25T12:11:00.808Z,4.26
2023-11-25T12:12:02.524Z,4.25
2023-11-25T12:13:04.386Z,4.24
2023-11-25T12:14:05.930Z,4.22
2023-11-25T12:15:07.882Z,4.22
2023-11-25T12:16:09.394Z,4.21
2023-11-25T12:17:11.138Z,4.2
2023-11-25T12:18:12.827Z,4.21
2023-11-25T12:19:14.512Z,4.22
2023-11-25T12:20:16.346Z,4.22
2023-11-25T12:21:17.981Z,4.23
2023-11-25T12:22:19.709Z,4.21
2023-11-25T12:23:21.430Z,4.21
2023-11-25T12:24:22.308Z,4.19
2023-11-25T12:25:24.978Z,4.19
2023-11-25T12:26:26.874Z,4.18
2023-11-25T12:27:28.331Z,4.17
2023-11-25T12:28:30.166Z,4.16
2023-11-25T12:29:31.775Z,4.15
2023-11-25T12:30:33.497Z,4.15
2023-11-25T12:31:35.289Z,4.13
2023-11-25T12:32:37.133Z,4.13
2023-11-25T12:33:38.693Z,4.12
2023-11-25T12:34:40.448Z,4.11
2023-11-25T12:35:42.203Z,4.1
2023-11-25T12:36:44.085Z,4.11
2023-11-25T12:37:45.609Z,4.1
2023-11-25T12:38:47.307Z,4.1
2023-11-25T12:39:49.052Z,4.09
2023-11-25T12:40:50.752Z,4.1
2023-11-25T12:41:52.465Z,4.1
2023-11-25T12:42:54.228Z,4.11
2023-11-25T12:43:56.023Z,4.11
2023-11-25T12:44:57.758Z,4.1
2023-11-25T12:45:59.614Z,4.11
2023-11-25T12:47:01.228Z,4.11
2023-11-25T12:48:02.894Z,4.11
2023-11-25T12:49:09.176Z,4.11
2023-11-25T12:50:06.320Z,4.12
2023-11-25T12:51:08.300Z,4.13
2023-11-25T12:52:09.734Z,4.13
2023-11-25T12:53:11.564Z,4.14
2023-11-25T12:54:13.205Z,4.14
2023-11-25T12:55:14.959Z,4.15
2023-11-25T12:56:16.649Z,4.16
2023-11-25T12:57:18.434Z,4.16
2023-11-25T12:58:20.102Z,4.16
2023-11-25T12:59:21.829Z,4.18
2023-11-25T13:00:23.742Z,4.18
2023-11-25T13:01:25.374Z,4.19
2023-11-25T13:02:27.115Z,4.2
2023-11-25T13:03:29.063Z,4.2
2023-11-25T13:04:30.482Z,4.21
2023-11-25T13:05:32.171Z,4.21
2023-11-25T13:06:33.901Z,4.23
2023-11-25T13:07:35.854Z,4.25
2023-11-25T13:08:37.368Z,4.26
2023-11-25T13:09:39.119Z,4.28
2023-11-25T13:10:40.816Z,4.3
2023-11-25T13:11:42.693Z,4.32
2023-11-25T13:12:44.474Z,4.33
2023-11-25T13:13:45.978Z,4.34
2023-11-25T13:14:47.704Z,4.35
2023-11-25T13:15:49.405Z,4.35
2023-11-25T13:16:51.205Z,4.35
2023-11-25T13:17:52.952Z,4.35
2023-11-25T13:18:54.623Z,4.36
2023-11-25T13:19:56.568Z,4.36
2023-11-25T13:20:58.046Z,4.36
2023-11-25T13:21:59.768Z,4.36
2023-11-25T13:23:01.537Z,4.36
2023-11-25T13:24:03.212Z,4.36
2023-11-25T13:25:04.984Z,4.35
2023-11-25T13:26:06.680Z,4.35
2023-11-25T13:27:10.460Z,4.35
2023-11-25T13:28:10.118Z,4.35
2023-11-25T13:29:11.975Z,4.35
2023-11-25T13:30:13.614Z,4.35
2023-11-25T13:31:15.301Z,4.36
2023-11-25T13:32:17.029Z,4.36
2023-11-25T13:33:18.852Z,4.38
2023-11-25T13:34:20.531Z,4.39
2023-11-25T13:35:22.238Z,4.4
2023-11-25T13:36:24.072Z,4.42
2023-11-25T13:37:25.738Z,4.45
2023-11-25T13:38:27.399Z,4.46
2023-11-25T13:39:29.085Z,4.5
2023-11-25T13:40:31.015Z,4.56
2023-11-25T13:41:32.600Z,4.65
2023-11-25T13:42:34.274Z,4.74
2023-11-25T13:43:36.023Z,4.82
2023-11-25T13:44:37.743Z,4.89
2023-11-25T13:45:39.477Z,4.95
2023-11-25T13:46:41.243Z,4.99
2023-11-25T13:47:42.950Z,5.04
2023-11-25T13:48:44.621Z,5.09
2023-11-25T13:49:46.382Z,5.11
2023-11-25T13:50:48.280Z,5.13
2023-11-25T13:51:49.801Z,5.13
2023-11-25T13:52:51.584Z,5.13
2023-11-25T13:53:53.331Z,5.13
2023-11-25T13:54:54.996Z,5.16
2023-11-25T13:55:56.724Z,5.15
2023-11-25T13:56:58.459Z,5.16
2023-11-25T13:58:00.207Z,5.15
2023-11-25T13:59:01.961Z,5.12
2023-11-25T14:00:03.640Z,5.1